sensor_id;sensor_type;location;lat;lon;timestamp;P1;durP1;ratioP1;P2;durP2;ratioP2
12703;SDS011;6416;52.182;7.650;2022-11-10T00:00:40;6.03;;;2.13;;
12703;SDS011;6416;52.182;7.650;2022-11-10T00:03:06;4.67;;;2.00;;
12703;SDS011;6416;52.182;7.650;2022-11-10T00:05:34;4.43;;;1.87;;
12703;SDS011;6416;52.182;7.650;2022-11-10T00:08:02;5.17;;;2.10;;
12703;SDS011;6416;52.182;7.650;2022-11-10T00:10:29;5.40;;;2.13;;
12703;SDS011;6416;52.182;7.650;2022-11-10T00:12:58;2.27;;;1.70;;
12703;SDS011;6416;52.182;7.650;2022-11-10T00:15:24;4.57;;;2.00;;
12703;SDS011;6416;52.182;7.650;2022-11-10T00:17:50;5.50;;;1.73;;
12703;SDS011;6416;52.182;7.650;2022-11-10T00:20:15;3.63;;;1.63;;
12703;SDS011;6416;52.182;7.650;2022-11-10T00:22:41;3.37;;;1.93;;
12703;SDS011;6416;52.182;7.650;2022-11-10T00:25:06;4.30;;;2.17;;
12703;SDS011;6416;52.182;7.650;2022-11-10T00:27:35;3.37;;;1.70;;
12703;SDS011;6416;52.182;7.650;2022-11-10T00:30:00;7.80;;;2.13;;
12703;SDS011;6416;52.182;7.650;2022-11-10T00:32:26;3.63;;;1.93;;
12703;SDS011;6416;52.182;7.650;2022-11-10T00:34:51;3.30;;;1.77;;
12703;SDS011;6416;52.182;7.650;2022-11-10T00:37:17;4.37;;;1.73;;
12703;SDS011;6416;52.182;7.650;2022-11-10T00:39:42;4.03;;;2.20;;
12703;SDS011;6416;52.182;7.650;2022-11-10T00:42:08;3.50;;;1.97;;
12703;SDS011;6416;52.182;7.650;2022-11-10T00:44:33;3.23;;;1.73;;
12703;SDS011;6416;52.182;7.650;2022-11-10T00:47:02;3.97;;;1.93;;
12703;SDS011;6416;52.182;7.650;2022-11-10T00:49:27;4.00;;;1.77;;
12703;SDS011;6416;52.182;7.650;2022-11-10T00:51:53;5.70;;;2.13;;
12703;SDS011;6416;52.182;7.650;2022-11-10T00:54:18;6.20;;;2.43;;
12703;SDS011;6416;52.182;7.650;2022-11-10T00:56:44;4.53;;;1.70;;
12703;SDS011;6416;52.182;7.650;2022-11-10T00:59:09;4.33;;;2.23;;
12703;SDS011;6416;52.182;7.650;2022-11-10T01:01:35;4.83;;;2.17;;
12703;SDS011;6416;52.182;7.650;2022-11-10T01:04:00;4.20;;;2.17;;
12703;SDS011;6416;52.182;7.650;2022-11-10T01:06:26;5.53;;;2.30;;
12703;SDS011;6416;52.182;7.650;2022-11-10T01:08:51;5.83;;;2.07;;
12703;SDS011;6416;52.182;7.650;2022-11-10T01:11:18;3.97;;;2.00;;
12703;SDS011;6416;52.182;7.650;2022-11-10T01:13:46;3.97;;;1.90;;
12703;SDS011;6416;52.182;7.650;2022-11-10T01:16:14;5.43;;;2.10;;
12703;SDS011;6416;52.182;7.650;2022-11-10T01:18:42;4.03;;;2.03;;
12703;SDS011;6416;52.182;7.650;2022-11-10T01:21:07;4.80;;;2.03;;
12703;SDS011;6416;52.182;7.650;2022-11-10T01:23:33;5.93;;;2.17;;
12703;SDS011;6416;52.182;7.650;2022-11-10T01:25:59;2.10;;;1.50;;
12703;SDS011;6416;52.182;7.650;2022-11-10T01:28:27;6.60;;;2.20;;
12703;SDS011;6416;52.182;7.650;2022-11-10T01:31:00;5.37;;;2.50;;
12703;SDS011;6416;52.182;7.650;2022-11-10T01:33:27;4.43;;;2.57;;
12703;SDS011;6416;52.182;7.650;2022-11-10T01:35:53;4.20;;;2.33;;
12703;SDS011;6416;52.182;7.650;2022-11-10T01:38:19;4.83;;;2.10;;
12703;SDS011;6416;52.182;7.650;2022-11-10T01:40:46;8.63;;;2.53;;
12703;SDS011;6416;52.182;7.650;2022-11-10T01:43:12;5.93;;;2.30;;
12703;SDS011;6416;52.182;7.650;2022-11-10T01:45:43;4.73;;;2.00;;
12703;SDS011;6416;52.182;7.650;2022-11-10T01:48:15;5.73;;;2.27;;
12703;SDS011;6416;52.182;7.650;2022-11-10T01:51:17;4.10;;;2.10;;
12703;SDS011;6416;52.182;7.650;2022-11-10T01:53:53;6.43;;;2.60;;
12703;SDS011;6416;52.182;7.650;2022-11-10T01:56:22;4.90;;;2.03;;
12703;SDS011;6416;52.182;7.650;2022-11-10T01:58:52;3.77;;;2.10;;
12703;SDS011;6416;52.182;7.650;2022-11-10T02:01:21;6.27;;;2.73;;
12703;SDS011;6416;52.182;7.650;2022-11-10T02:03:49;4.73;;;2.37;;
12703;SDS011;6416;52.182;7.650;2022-11-10T02:06:17;4.37;;;2.07;;
12703;SDS011;6416;52.182;7.650;2022-11-10T02:08:46;4.20;;;2.20;;
12703;SDS011;6416;52.182;7.650;2022-11-10T02:11:12;6.17;;;2.43;;
12703;SDS011;6416;52.182;7.650;2022-11-10T02:13:38;5.87;;;2.70;;
12703;SDS011;6416;52.182;7.650;2022-11-10T02:16:04;6.73;;;2.80;;
12703;SDS011;6416;52.182;7.650;2022-11-10T02:18:30;5.40;;;2.40;;
12703;SDS011;6416;52.182;7.650;2022-11-10T02:20:55;3.93;;;1.80;;
12703;SDS011;6416;52.182;7.650;2022-11-10T02:25:55;5.57;;;2.47;;
12703;SDS011;6416;52.182;7.650;2022-11-10T02:28:22;4.40;;;2.20;;
12703;SDS011;6416;52.182;7.650;2022-11-10T02:30:48;5.07;;;1.90;;
12703;SDS011;6416;52.182;7.650;2022-11-10T02:33:14;4.03;;;2.27;;
12703;SDS011;6416;52.182;7.650;2022-11-10T02:35:40;4.10;;;1.97;;
12703;SDS011;6416;52.182;7.650;2022-11-10T02:38:05;5.70;;;2.53;;
12703;SDS011;6416;52.182;7.650;2022-11-10T02:40:30;6.37;;;2.10;;
12703;SDS011;6416;52.182;7.650;2022-11-10T02:42:56;4.33;;;2.10;;
12703;SDS011;6416;52.182;7.650;2022-11-10T02:45:22;4.77;;;2.33;;
12703;SDS011;6416;52.182;7.650;2022-11-10T02:47:47;5.47;;;2.20;;
12703;SDS011;6416;52.182;7.650;2022-11-10T02:50:13;5.43;;;2.27;;
12703;SDS011;6416;52.182;7.650;2022-11-10T02:52:38;6.50;;;2.60;;
12703;SDS011;6416;52.182;7.650;2022-11-10T02:55:04;3.87;;;2.63;;
12703;SDS011;6416;52.182;7.650;2022-11-10T02:57:30;5.97;;;2.60;;
12703;SDS011;6416;52.182;7.650;2022-11-10T02:59:55;6.03;;;3.00;;
12703;SDS011;6416;52.182;7.650;2022-11-10T03:02:20;4.50;;;2.70;;
12703;SDS011;6416;52.182;7.650;2022-11-10T03:04:46;7.80;;;2.77;;
12703;SDS011;6416;52.182;7.650;2022-11-10T03:07:14;7.53;;;2.80;;
12703;SDS011;6416;52.182;7.650;2022-11-10T03:09:40;5.07;;;2.70;;
12703;SDS011;6416;52.182;7.650;2022-11-10T03:12:05;9.03;;;2.83;;
12703;SDS011;6416;52.182;7.650;2022-11-10T03:14:31;6.33;;;3.07;;
12703;SDS011;6416;52.182;7.650;2022-11-10T03:16:56;6.00;;;2.60;;
12703;SDS011;6416;52.182;7.650;2022-11-10T03:19:22;4.63;;;2.67;;
12703;SDS011;6416;52.182;7.650;2022-11-10T03:21:47;8.03;;;2.87;;
12703;SDS011;6416;52.182;7.650;2022-11-10T03:24:13;6.37;;;2.57;;
12703;SDS011;6416;52.182;7.650;2022-11-10T03:26:38;5.37;;;2.47;;
12703;SDS011;6416;52.182;7.650;2022-11-10T03:29:04;4.60;;;2.77;;
12703;SDS011;6416;52.182;7.650;2022-11-10T03:31:29;7.67;;;3.00;;
12703;SDS011;6416;52.182;7.650;2022-11-10T03:33:55;4.53;;;2.33;;
12703;SDS011;6416;52.182;7.650;2022-11-10T03:36:20;7.53;;;3.03;;
12703;SDS011;6416;52.182;7.650;2022-11-10T03:38:45;6.27;;;2.90;;
12703;SDS011;6416;52.182;7.650;2022-11-10T03:41:11;6.60;;;3.10;;
12703;SDS011;6416;52.182;7.650;2022-11-10T03:43:36;4.07;;;2.40;;
12703;SDS011;6416;52.182;7.650;2022-11-10T03:46:02;5.37;;;2.97;;
12703;SDS011;6416;52.182;7.650;2022-11-10T03:48:27;6.57;;;3.13;;
12703;SDS011;6416;52.182;7.650;2022-11-10T03:50:53;4.13;;;2.40;;
12703;SDS011;6416;52.182;7.650;2022-11-10T03:53:18;7.67;;;2.97;;
12703;SDS011;6416;52.182;7.650;2022-11-10T03:55:44;7.07;;;3.10;;
12703;SDS011;6416;52.182;7.650;2022-11-10T03:58:09;5.63;;;3.20;;
12703;SDS011;6416;52.182;7.650;2022-11-10T04:00:34;6.80;;;3.30;;
12703;SDS011;6416;52.182;7.650;2022-11-10T04:03:00;5.67;;;2.97;;
12703;SDS011;6416;52.182;7.650;2022-11-10T04:05:25;4.87;;;3.23;;
12703;SDS011;6416;52.182;7.650;2022-11-10T04:07:58;4.33;;;3.37;;
12703;SDS011;6416;52.182;7.650;2022-11-10T04:10:24;6.20;;;3.30;;
12703;SDS011;6416;52.182;7.650;2022-11-10T04:12:49;7.90;;;3.20;;
12703;SDS011;6416;52.182;7.650;2022-11-10T04:15:15;4.43;;;2.97;;
12703;SDS011;6416;52.182;7.650;2022-11-10T04:17:40;6.07;;;3.00;;
12703;SDS011;6416;52.182;7.650;2022-11-10T04:20:13;6.40;;;3.17;;
12703;SDS011;6416;52.182;7.650;2022-11-10T04:22:38;4.87;;;2.70;;
12703;SDS011;6416;52.182;7.650;2022-11-10T04:25:04;5.00;;;3.07;;
12703;SDS011;6416;52.182;7.650;2022-11-10T04:27:29;6.10;;;3.10;;
12703;SDS011;6416;52.182;7.650;2022-11-10T04:29:55;7.97;;;3.03;;
12703;SDS011;6416;52.182;7.650;2022-11-10T04:32:20;6.20;;;2.77;;
12703;SDS011;6416;52.182;7.650;2022-11-10T04:34:46;5.13;;;3.23;;
12703;SDS011;6416;52.182;7.650;2022-11-10T04:37:11;7.80;;;3.20;;
12703;SDS011;6416;52.182;7.650;2022-11-10T04:39:37;5.00;;;2.73;;
12703;SDS011;6416;52.182;7.650;2022-11-10T04:42:02;3.87;;;2.60;;
12703;SDS011;6416;52.182;7.650;2022-11-10T04:44:28;13.97;;;3.33;;
12703;SDS011;6416;52.182;7.650;2022-11-10T04:46:53;4.73;;;2.87;;
12703;SDS011;6416;52.182;7.650;2022-11-10T04:49:18;6.43;;;3.00;;
12703;SDS011;6416;52.182;7.650;2022-11-10T04:51:44;7.63;;;3.60;;
12703;SDS011;6416;52.182;7.650;2022-11-10T04:54:09;4.33;;;2.57;;
12703;SDS011;6416;52.182;7.650;2022-11-10T04:56:35;6.73;;;3.47;;
12703;SDS011;6416;52.182;7.650;2022-11-10T04:59:01;5.03;;;3.10;;
12703;SDS011;6416;52.182;7.650;2022-11-10T05:01:26;5.97;;;2.70;;
12703;SDS011;6416;52.182;7.650;2022-11-10T05:03:52;6.80;;;4.00;;
12703;SDS011;6416;52.182;7.650;2022-11-10T05:06:19;7.70;;;3.57;;
12703;SDS011;6416;52.182;7.650;2022-11-10T05:08:44;9.20;;;3.80;;
12703;SDS011;6416;52.182;7.650;2022-11-10T05:11:11;9.57;;;4.20;;
12703;SDS011;6416;52.182;7.650;2022-11-10T05:13:37;10.77;;;4.40;;
12703;SDS011;6416;52.182;7.650;2022-11-10T05:16:03;7.50;;;3.70;;
12703;SDS011;6416;52.182;7.650;2022-11-10T05:18:29;6.80;;;3.40;;
12703;SDS011;6416;52.182;7.650;2022-11-10T05:20:55;7.73;;;3.37;;
12703;SDS011;6416;52.182;7.650;2022-11-10T05:23:20;8.47;;;3.60;;
12703;SDS011;6416;52.182;7.650;2022-11-10T05:25:46;7.57;;;3.33;;
12703;SDS011;6416;52.182;7.650;2022-11-10T05:28:12;13.87;;;4.10;;
12703;SDS011;6416;52.182;7.650;2022-11-10T05:30:37;7.40;;;4.00;;
12703;SDS011;6416;52.182;7.650;2022-11-10T05:33:04;8.57;;;4.20;;
12703;SDS011;6416;52.182;7.650;2022-11-10T05:35:30;8.67;;;3.97;;
12703;SDS011;6416;52.182;7.650;2022-11-10T05:37:56;7.40;;;3.67;;
12703;SDS011;6416;52.182;7.650;2022-11-10T05:40:21;7.23;;;3.97;;
12703;SDS011;6416;52.182;7.650;2022-11-10T05:42:49;7.20;;;4.27;;
12703;SDS011;6416;52.182;7.650;2022-11-10T05:45:15;8.10;;;5.43;;
12703;SDS011;6416;52.182;7.650;2022-11-10T05:47:40;8.87;;;4.70;;
12703;SDS011;6416;52.182;7.650;2022-11-10T05:50:06;6.97;;;5.13;;
12703;SDS011;6416;52.182;7.650;2022-11-10T05:52:33;10.50;;;6.93;;
12703;SDS011;6416;52.182;7.650;2022-11-10T05:54:59;12.30;;;10.47;;
12703;SDS011;6416;52.182;7.650;2022-11-10T05:57:24;14.27;;;12.03;;
12703;SDS011;6416;52.182;7.650;2022-11-10T05:59:50;12.33;;;11.03;;
12703;SDS011;6416;52.182;7.650;2022-11-10T06:02:15;13.07;;;9.97;;
12703;SDS011;6416;52.182;7.650;2022-11-10T06:04:41;15.23;;;13.40;;
12703;SDS011;6416;52.182;7.650;2022-11-10T06:07:06;10.47;;;9.40;;
12703;SDS011;6416;52.182;7.650;2022-11-10T06:09:32;10.90;;;8.00;;
12703;SDS011;6416;52.182;7.650;2022-11-10T06:11:58;9.10;;;6.07;;
12703;SDS011;6416;52.182;7.650;2022-11-10T06:14:24;11.23;;;7.83;;
12703;SDS011;6416;52.182;7.650;2022-11-10T06:16:49;12.50;;;10.60;;
12703;SDS011;6416;52.182;7.650;2022-11-10T06:19:15;10.30;;;7.77;;
12703;SDS011;6416;52.182;7.650;2022-11-10T06:21:40;10.43;;;7.20;;
12703;SDS011;6416;52.182;7.650;2022-11-10T06:24:06;10.00;;;5.10;;
12703;SDS011;6416;52.182;7.650;2022-11-10T06:26:31;8.50;;;4.03;;
12703;SDS011;6416;52.182;7.650;2022-11-10T06:28:57;7.40;;;3.87;;
12703;SDS011;6416;52.182;7.650;2022-11-10T06:31:23;8.50;;;4.27;;
12703;SDS011;6416;52.182;7.650;2022-11-10T06:33:48;3.63;;;2.60;;
12703;SDS011;6416;52.182;7.650;2022-11-10T06:36:14;5.60;;;3.00;;
12703;SDS011;6416;52.182;7.650;2022-11-10T06:38:40;7.13;;;2.90;;
12703;SDS011;6416;52.182;7.650;2022-11-10T06:41:05;7.57;;;3.30;;
12703;SDS011;6416;52.182;7.650;2022-11-10T06:43:31;6.53;;;3.10;;
12703;SDS011;6416;52.182;7.650;2022-11-10T06:45:56;7.37;;;4.13;;
12703;SDS011;6416;52.182;7.650;2022-11-10T06:48:22;5.03;;;3.33;;
12703;SDS011;6416;52.182;7.650;2022-11-10T06:50:47;5.83;;;2.73;;
12703;SDS011;6416;52.182;7.650;2022-11-10T06:53:13;8.13;;;4.63;;
12703;SDS011;6416;52.182;7.650;2022-11-10T06:55:38;6.77;;;3.80;;
12703;SDS011;6416;52.182;7.650;2022-11-10T06:58:04;8.57;;;5.77;;
12703;SDS011;6416;52.182;7.650;2022-11-10T07:00:29;9.80;;;5.30;;
12703;SDS011;6416;52.182;7.650;2022-11-10T07:03:02;5.93;;;5.33;;
12703;SDS011;6416;52.182;7.650;2022-11-10T07:05:29;7.40;;;4.97;;
12703;SDS011;6416;52.182;7.650;2022-11-10T07:08:00;9.43;;;6.13;;
12703;SDS011;6416;52.182;7.650;2022-11-10T07:10:33;9.30;;;5.20;;
12703;SDS011;6416;52.182;7.650;2022-11-10T07:13:00;9.47;;;4.43;;
12703;SDS011;6416;52.182;7.650;2022-11-10T07:15:26;7.43;;;4.80;;
12703;SDS011;6416;52.182;7.650;2022-11-10T07:17:52;7.23;;;3.73;;
12703;SDS011;6416;52.182;7.650;2022-11-10T07:20:18;6.93;;;3.90;;
12703;SDS011;6416;52.182;7.650;2022-11-10T07:22:44;7.97;;;4.00;;
12703;SDS011;6416;52.182;7.650;2022-11-10T07:25:10;7.00;;;4.27;;
12703;SDS011;6416;52.182;7.650;2022-11-10T07:27:36;8.87;;;4.47;;
12703;SDS011;6416;52.182;7.650;2022-11-10T07:30:02;6.40;;;3.80;;
12703;SDS011;6416;52.182;7.650;2022-11-10T07:32:28;8.40;;;3.83;;
12703;SDS011;6416;52.182;7.650;2022-11-10T07:34:53;8.63;;;5.40;;
12703;SDS011;6416;52.182;7.650;2022-11-10T07:37:19;8.13;;;5.83;;
12703;SDS011;6416;52.182;7.650;2022-11-10T07:39:44;7.60;;;6.60;;
12703;SDS011;6416;52.182;7.650;2022-11-10T07:42:10;9.90;;;8.93;;
12703;SDS011;6416;52.182;7.650;2022-11-10T07:44:35;11.80;;;7.80;;
12703;SDS011;6416;52.182;7.650;2022-11-10T07:47:01;8.83;;;7.43;;
12703;SDS011;6416;52.182;7.650;2022-11-10T07:49:26;7.80;;;5.70;;
12703;SDS011;6416;52.182;7.650;2022-11-10T07:51:52;11.67;;;10.43;;
12703;SDS011;6416;52.182;7.650;2022-11-10T07:54:17;13.07;;;8.37;;
12703;SDS011;6416;52.182;7.650;2022-11-10T07:56:42;7.97;;;7.03;;
12703;SDS011;6416;52.182;7.650;2022-11-10T07:59:08;11.57;;;9.27;;
12703;SDS011;6416;52.182;7.650;2022-11-10T08:01:33;12.23;;;9.47;;
12703;SDS011;6416;52.182;7.650;2022-11-10T08:03:59;8.77;;;7.87;;
12703;SDS011;6416;52.182;7.650;2022-11-10T08:06:24;10.47;;;7.20;;
12703;SDS011;6416;52.182;7.650;2022-11-10T08:08:50;8.30;;;4.80;;
12703;SDS011;6416;52.182;7.650;2022-11-10T08:11:15;10.67;;;9.57;;
12703;SDS011;6416;52.182;7.650;2022-11-10T08:13:41;10.27;;;8.43;;
12703;SDS011;6416;52.182;7.650;2022-11-10T08:16:07;9.03;;;8.13;;
12703;SDS011;6416;52.182;7.650;2022-11-10T08:18:33;8.03;;;6.37;;
12703;SDS011;6416;52.182;7.650;2022-11-10T08:21:02;11.63;;;7.30;;
12703;SDS011;6416;52.182;7.650;2022-11-10T08:23:28;10.37;;;8.50;;
12703;SDS011;6416;52.182;7.650;2022-11-10T08:25:56;9.57;;;7.00;;
12703;SDS011;6416;52.182;7.650;2022-11-10T08:28:23;10.90;;;7.10;;
12703;SDS011;6416;52.182;7.650;2022-11-10T08:30:48;12.00;;;5.40;;
12703;SDS011;6416;52.182;7.650;2022-11-10T08:33:16;8.33;;;4.13;;
12703;SDS011;6416;52.182;7.650;2022-11-10T08:35:44;9.00;;;5.33;;
12703;SDS011;6416;52.182;7.650;2022-11-10T08:38:12;12.10;;;5.07;;
12703;SDS011;6416;52.182;7.650;2022-11-10T08:40:40;8.37;;;4.00;;
12703;SDS011;6416;52.182;7.650;2022-11-10T08:43:06;6.97;;;4.07;;
12703;SDS011;6416;52.182;7.650;2022-11-10T08:45:33;6.50;;;3.00;;
12703;SDS011;6416;52.182;7.650;2022-11-10T08:48:00;7.57;;;3.00;;
12703;SDS011;6416;52.182;7.650;2022-11-10T08:50:30;8.10;;;3.20;;
12703;SDS011;6416;52.182;7.650;2022-11-10T08:52:56;8.15;;;2.78;;
12703;SDS011;6416;52.182;7.650;2022-11-10T08:55:25;7.78;;;3.47;;
12703;SDS011;6416;52.182;7.650;2022-11-10T08:57:50;6.80;;;2.55;;
12703;SDS011;6416;52.182;7.650;2022-11-10T09:00:16;7.63;;;4.18;;
12703;SDS011;6416;52.182;7.650;2022-11-10T09:02:42;7.20;;;4.45;;
12703;SDS011;6416;52.182;7.650;2022-11-10T09:05:07;9.77;;;5.45;;
12703;SDS011;6416;52.182;7.650;2022-11-10T09:07:41;8.32;;;3.28;;
12703;SDS011;6416;52.182;7.650;2022-11-10T09:10:08;7.93;;;3.60;;
12703;SDS011;6416;52.182;7.650;2022-11-10T09:12:35;8.90;;;4.13;;
12703;SDS011;6416;52.182;7.650;2022-11-10T09:15:00;8.85;;;3.60;;
12703;SDS011;6416;52.182;7.650;2022-11-10T09:17:26;7.10;;;2.30;;
12703;SDS011;6416;52.182;7.650;2022-11-10T09:19:52;6.13;;;2.58;;
12703;SDS011;6416;52.182;7.650;2022-11-10T09:22:17;12.18;;;3.50;;
12703;SDS011;6416;52.182;7.650;2022-11-10T09:24:42;9.43;;;3.67;;
12703;SDS011;6416;52.182;7.650;2022-11-10T09:27:08;6.10;;;3.17;;
12703;SDS011;6416;52.182;7.650;2022-11-10T09:29:33;4.63;;;2.42;;
12703;SDS011;6416;52.182;7.650;2022-11-10T09:31:59;8.73;;;3.70;;
12703;SDS011;6416;52.182;7.650;2022-11-10T09:34:24;10.57;;;3.60;;
12703;SDS011;6416;52.182;7.650;2022-11-10T09:36:50;5.63;;;2.95;;
12703;SDS011;6416;52.182;7.650;2022-11-10T09:39:15;7.65;;;3.55;;
12703;SDS011;6416;52.182;7.650;2022-11-10T09:41:41;6.53;;;2.83;;
12703;SDS011;6416;52.182;7.650;2022-11-10T09:44:13;6.75;;;2.58;;
12703;SDS011;6416;52.182;7.650;2022-11-10T09:46:44;6.45;;;2.65;;
12703;SDS011;6416;52.182;7.650;2022-11-10T09:51:53;9.98;;;2.70;;
12703;SDS011;6416;52.182;7.650;2022-11-10T09:57:06;3.75;;;1.85;;
12703;SDS011;6416;52.182;7.650;2022-11-10T09:59:36;5.28;;;2.45;;
12703;SDS011;6416;52.182;7.650;2022-11-10T10:02:02;6.07;;;2.67;;
12703;SDS011;6416;52.182;7.650;2022-11-10T10:10:40;7.85;;;2.10;;
12703;SDS011;6416;52.182;7.650;2022-11-10T10:13:26;6.05;;;1.95;;
12703;SDS011;6416;52.182;7.650;2022-11-10T10:18:58;6.30;;;2.20;;
12703;SDS011;6416;52.182;7.650;2022-11-10T10:21:40;6.10;;;2.30;;
12703;SDS011;6416;52.182;7.650;2022-11-10T10:24:23;7.13;;;2.20;;
12703;SDS011;6416;52.182;7.650;2022-11-10T10:26:52;5.07;;;2.08;;
12703;SDS011;6416;52.182;7.650;2022-11-10T10:29:21;7.25;;;2.53;;
12703;SDS011;6416;52.182;7.650;2022-11-10T10:31:49;6.22;;;2.17;;
12703;SDS011;6416;52.182;7.650;2022-11-10T10:34:20;6.75;;;2.08;;
12703;SDS011;6416;52.182;7.650;2022-11-10T10:36:49;6.45;;;2.88;;
12703;SDS011;6416;52.182;7.650;2022-11-10T10:39:28;5.60;;;2.25;;
12703;SDS011;6416;52.182;7.650;2022-11-10T10:42:00;5.20;;;1.70;;
12703;SDS011;6416;52.182;7.650;2022-11-10T10:44:28;6.22;;;1.88;;
12703;SDS011;6416;52.182;7.650;2022-11-10T10:46:55;4.07;;;1.95;;
12703;SDS011;6416;52.182;7.650;2022-11-10T10:49:26;7.40;;;2.58;;
12703;SDS011;6416;52.182;7.650;2022-11-10T10:54:37;7.28;;;2.88;;
12703;SDS011;6416;52.182;7.650;2022-11-10T10:59:51;7.75;;;2.40;;
12703;SDS011;6416;52.182;7.650;2022-11-10T11:02:39;5.00;;;2.05;;
12703;SDS011;6416;52.182;7.650;2022-11-10T11:05:15;5.43;;;2.83;;
12703;SDS011;6416;52.182;7.650;2022-11-10T11:07:55;6.78;;;2.42;;
12703;SDS011;6416;52.182;7.650;2022-11-10T11:10:23;5.78;;;2.58;;
12703;SDS011;6416;52.182;7.650;2022-11-10T11:12:51;5.28;;;2.33;;
12703;SDS011;6416;52.182;7.650;2022-11-10T11:15:24;5.53;;;2.08;;
12703;SDS011;6416;52.182;7.650;2022-11-10T11:17:55;5.75;;;2.05;;
12703;SDS011;6416;52.182;7.650;2022-11-10T11:20:26;6.28;;;2.17;;
12703;SDS011;6416;52.182;7.650;2022-11-10T11:25:53;5.93;;;2.33;;
12703;SDS011;6416;52.182;7.650;2022-11-10T11:28:27;4.40;;;1.83;;
12703;SDS011;6416;52.182;7.650;2022-11-10T11:31:09;5.53;;;2.45;;
12703;SDS011;6416;52.182;7.650;2022-11-10T11:36:59;7.15;;;1.80;;
12703;SDS011;6416;52.182;7.650;2022-11-10T11:42:17;8.27;;;2.35;;
12703;SDS011;6416;52.182;7.650;2022-11-10T11:47:58;12.45;;;2.28;;
12703;SDS011;6416;52.182;7.650;2022-11-10T11:50:46;5.38;;;2.08;;
12703;SDS011;6416;52.182;7.650;2022-11-10T11:56:17;4.75;;;1.60;;
12703;SDS011;6416;52.182;7.650;2022-11-10T11:59:01;5.38;;;1.73;;
12703;SDS011;6416;52.182;7.650;2022-11-10T12:10:06;7.45;;;2.42;;
12703;SDS011;6416;52.182;7.650;2022-11-10T12:15:21;5.45;;;3.58;;
12703;SDS011;6416;52.182;7.650;2022-11-10T12:21:14;8.10;;;2.72;;
12703;SDS011;6416;52.182;7.650;2022-11-10T12:23:59;5.40;;;2.15;;
12703;SDS011;6416;52.182;7.650;2022-11-10T12:26:50;6.15;;;2.35;;
12703;SDS011;6416;52.182;7.650;2022-11-10T12:32:16;6.07;;;2.00;;
12703;SDS011;6416;52.182;7.650;2022-11-10T12:34:47;4.45;;;1.70;;
12703;SDS011;6416;52.182;7.650;2022-11-10T12:37:38;6.50;;;2.40;;
12703;SDS011;6416;52.182;7.650;2022-11-10T12:40:15;5.88;;;2.38;;
12703;SDS011;6416;52.182;7.650;2022-11-10T12:42:45;6.75;;;1.88;;
12703;SDS011;6416;52.182;7.650;2022-11-10T12:45:20;7.03;;;1.85;;
12703;SDS011;6416;52.182;7.650;2022-11-10T12:47:50;5.68;;;2.00;;
12703;SDS011;6416;52.182;7.650;2022-11-10T12:50:19;5.28;;;2.10;;
12703;SDS011;6416;52.182;7.650;2022-11-10T12:56:00;5.97;;;1.90;;
12703;SDS011;6416;52.182;7.650;2022-11-10T12:58:30;5.15;;;2.00;;
12703;SDS011;6416;52.182;7.650;2022-11-10T13:01:06;6.45;;;2.00;;
12703;SDS011;6416;52.182;7.650;2022-11-10T13:03:59;4.18;;;1.65;;
12703;SDS011;6416;52.182;7.650;2022-11-10T13:06:26;4.18;;;1.70;;
12703;SDS011;6416;52.182;7.650;2022-11-10T13:08:55;5.10;;;1.90;;
12703;SDS011;6416;52.182;7.650;2022-11-10T13:13:57;5.95;;;1.83;;
12703;SDS011;6416;52.182;7.650;2022-11-10T13:16:45;5.10;;;1.85;;
12703;SDS011;6416;52.182;7.650;2022-11-10T13:24:22;4.93;;;1.77;;
12703;SDS011;6416;52.182;7.650;2022-11-10T13:26:55;8.07;;;1.80;;
12703;SDS011;6416;52.182;7.650;2022-11-10T13:32:21;3.92;;;1.67;;
12703;SDS011;6416;52.182;7.650;2022-11-10T13:34:49;4.20;;;1.88;;
12703;SDS011;6416;52.182;7.650;2022-11-10T13:45:36;3.65;;;1.55;;
12703;SDS011;6416;52.182;7.650;2022-11-10T13:50:42;8.18;;;1.70;;
12703;SDS011;6416;52.182;7.650;2022-11-10T13:58:46;7.30;;;3.15;;
12703;SDS011;6416;52.182;7.650;2022-11-10T14:09:04;9.43;;;2.53;;
12703;SDS011;6416;52.182;7.650;2022-11-10T14:11:39;6.75;;;2.00;;
12703;SDS011;6416;52.182;7.650;2022-11-10T14:14:19;6.63;;;2.88;;
12703;SDS011;6416;52.182;7.650;2022-11-10T14:16:48;4.35;;;2.58;;
12703;SDS011;6416;52.182;7.650;2022-11-10T14:22:00;5.40;;;2.50;;
12703;SDS011;6416;52.182;7.650;2022-11-10T14:24:53;5.25;;;1.90;;
12703;SDS011;6416;52.182;7.650;2022-11-10T14:27:25;4.30;;;1.90;;
12703;SDS011;6416;52.182;7.650;2022-11-10T14:32:43;8.73;;;7.28;;
12703;SDS011;6416;52.182;7.650;2022-11-10T14:35:21;7.82;;;4.38;;
12703;SDS011;6416;52.182;7.650;2022-11-10T14:37:50;5.32;;;3.35;;
12703;SDS011;6416;52.182;7.650;2022-11-10T14:40:17;5.05;;;2.33;;
12703;SDS011;6416;52.182;7.650;2022-11-10T14:42:43;4.55;;;2.15;;
12703;SDS011;6416;52.182;7.650;2022-11-10T14:47:50;2.92;;;1.40;;
12703;SDS011;6416;52.182;7.650;2022-11-10T14:50:19;6.70;;;3.83;;
12703;SDS011;6416;52.182;7.650;2022-11-10T14:52:47;5.57;;;2.55;;
12703;SDS011;6416;52.182;7.650;2022-11-10T14:55:20;4.32;;;2.75;;
12703;SDS011;6416;52.182;7.650;2022-11-10T15:00:24;6.50;;;2.10;;
12703;SDS011;6416;52.182;7.650;2022-11-10T15:02:52;5.90;;;1.83;;
12703;SDS011;6416;52.182;7.650;2022-11-10T15:05:18;6.15;;;1.92;;
12703;SDS011;6416;52.182;7.650;2022-11-10T15:07:44;7.10;;;2.55;;
12703;SDS011;6416;52.182;7.650;2022-11-10T15:13:05;4.15;;;2.30;;
12703;SDS011;6416;52.182;7.650;2022-11-10T15:15:40;4.88;;;2.03;;
12703;SDS011;6416;52.182;7.650;2022-11-10T15:18:06;5.67;;;3.70;;
12703;SDS011;6416;52.182;7.650;2022-11-10T15:20:54;5.60;;;1.92;;
12703;SDS011;6416;52.182;7.650;2022-11-10T15:23:32;2.90;;;1.70;;
12703;SDS011;6416;52.182;7.650;2022-11-10T15:26:03;5.97;;;1.90;;
12703;SDS011;6416;52.182;7.650;2022-11-10T15:28:33;3.90;;;1.77;;
12703;SDS011;6416;52.182;7.650;2022-11-10T15:31:00;5.07;;;2.40;;
12703;SDS011;6416;52.182;7.650;2022-11-10T15:33:37;6.90;;;2.50;;
12703;SDS011;6416;52.182;7.650;2022-11-10T15:36:42;4.40;;;2.23;;
12703;SDS011;6416;52.182;7.650;2022-11-10T15:41:37;3.87;;;2.40;;
12703;SDS011;6416;52.182;7.650;2022-11-10T15:46:50;6.93;;;3.07;;
12703;SDS011;6416;52.182;7.650;2022-11-10T15:51:57;2.77;;;1.73;;
12703;SDS011;6416;52.182;7.650;2022-11-10T15:54:26;4.40;;;2.20;;
12703;SDS011;6416;52.182;7.650;2022-11-10T15:56:53;7.07;;;3.70;;
12703;SDS011;6416;52.182;7.650;2022-11-10T15:59:19;5.17;;;3.40;;
12703;SDS011;6416;52.182;7.650;2022-11-10T16:01:44;7.13;;;3.73;;
12703;SDS011;6416;52.182;7.650;2022-11-10T16:04:10;5.47;;;3.40;;
12703;SDS011;6416;52.182;7.650;2022-11-10T16:06:36;6.03;;;2.93;;
12703;SDS011;6416;52.182;7.650;2022-11-10T16:09:02;4.97;;;2.23;;
12703;SDS011;6416;52.182;7.650;2022-11-10T16:11:28;4.07;;;2.20;;
12703;SDS011;6416;52.182;7.650;2022-11-10T16:13:55;4.10;;;2.10;;
12703;SDS011;6416;52.182;7.650;2022-11-10T16:16:21;3.50;;;1.97;;
12703;SDS011;6416;52.182;7.650;2022-11-10T16:18:47;5.33;;;2.30;;
12703;SDS011;6416;52.182;7.650;2022-11-10T16:21:13;4.83;;;2.57;;
12703;SDS011;6416;52.182;7.650;2022-11-10T16:23:49;4.63;;;2.27;;
12703;SDS011;6416;52.182;7.650;2022-11-10T16:26:16;5.23;;;2.40;;
12703;SDS011;6416;52.182;7.650;2022-11-10T16:28:44;5.43;;;2.27;;
12703;SDS011;6416;52.182;7.650;2022-11-10T16:31:10;4.63;;;2.50;;
12703;SDS011;6416;52.182;7.650;2022-11-10T16:33:36;3.53;;;2.10;;
12703;SDS011;6416;52.182;7.650;2022-11-10T16:36:01;4.77;;;2.30;;
12703;SDS011;6416;52.182;7.650;2022-11-10T16:38:28;4.03;;;2.00;;
12703;SDS011;6416;52.182;7.650;2022-11-10T16:40:56;4.13;;;2.10;;
12703;SDS011;6416;52.182;7.650;2022-11-10T16:43:23;5.20;;;2.37;;
12703;SDS011;6416;52.182;7.650;2022-11-10T16:45:50;4.10;;;2.20;;
12703;SDS011;6416;52.182;7.650;2022-11-10T16:48:19;5.80;;;2.17;;
12703;SDS011;6416;52.182;7.650;2022-11-10T16:50:49;5.97;;;2.00;;
12703;SDS011;6416;52.182;7.650;2022-11-10T16:53:17;2.47;;;2.00;;
12703;SDS011;6416;52.182;7.650;2022-11-10T16:55:46;4.03;;;2.33;;
12703;SDS011;6416;52.182;7.650;2022-11-10T16:58:11;5.77;;;2.10;;
12703;SDS011;6416;52.182;7.650;2022-11-10T17:00:37;4.57;;;2.30;;